Huvudsida
METAR-TAF:

METAR-TAF

Flygplatser :

Palangas internationella flygplats

Palanga, Litauen

latitud: 55-55-12N, longitud: 021-03E, höjd: 10 m

Aktuellt väderrapport

Denna rapport gjordes för 27 minuter sedan, klockan 15:20 UTC
Vind 3 kt varierande vindriktning
Temperatur 22°C
Fuktighet 73%
Tryck 1019 hPa
Sikt 10 km eller mer
Inga moln under 1 500 m eller inga cumulonimbus

METAR: EYPA 161520Z VRB03KT CAVOK 22/17 Q1019

Tid: 18:47 (15:47 UTC)

Väderprognos

Denna rapport gjordes för 4 timmar och 44 minuter sedan, klockan 11:03 UTC
Prognos gäller från 16 kl. 12 UTC till 17 kl. 12 UTC
Vind 5 kt varierande vindriktning
Sikt: 9000 m
Spridda moln på en höjd av 3000 ft
Temporärt
från 16 kl. 20 UTC till 17 kl. 06 UTC
Sikt: 0600 m
på en höjd av 200 ft
dimma
Temporärt
från 17 kl. 06 UTC till 17 kl. 09 UTC
Brutna moln på en höjd av 600 ft

TAF: EYPA 161103Z 1612/1712 VRB05KT 9000 SCT030 TEMPO 1620/1706 0600 FG VV002 TEMPO 1706/1709 BKN006

Aktuella väderrapporter och prognoser från 4000 flygplatser (METAR- och TAF-rapporter).

De tillgängliga stationerna syns som gula och röda prickar på kartan.

För musen över prickarna för att se namnen på stationerna.

Klicka sedan för att få väderrapporter och prognoser.

För att ändra kartan: Klicka på de gröna knapparna med ett svart kors på för att zooma in; den gröna knappen med ett streck på för att zooma ut; eller på de gröna pilarna för angränsande kartor.


METAR-TAF: